createdAt,value
2022-12-20T00:01:28.588Z,8.82
2022-12-20T00:03:58.077Z,10.27
2022-12-20T00:06:26.199Z,10.52
2022-12-20T00:08:59.505Z,9.30
2022-12-20T00:11:28.874Z,9.05
2022-12-20T00:13:56.174Z,9.02
2022-12-20T00:16:54.708Z,8.30
2022-12-20T00:19:26.777Z,8.30
2022-12-20T00:21:53.769Z,8.77
2022-12-20T00:27:37.754Z,7.78
2022-12-20T00:30:11.591Z,8.18
2022-12-20T00:32:45.636Z,7.40
2022-12-20T00:35:14.124Z,7.88
2022-12-20T00:37:41.804Z,9.00
2022-12-20T00:40:09.988Z,8.25
2022-12-20T00:42:37.727Z,8.05
2022-12-20T00:45:06.160Z,8.38
2022-12-20T00:47:33.851Z,7.40
2022-12-20T00:50:01.904Z,8.48
2022-12-20T00:52:29.745Z,7.65
2022-12-20T00:55:04.223Z,7.50
2022-12-20T00:57:31.747Z,8.43
2022-12-20T00:59:59.823Z,8.60
2022-12-20T01:05:24.907Z,7.82
2022-12-20T01:07:58.113Z,8.30
2022-12-20T01:10:30.938Z,8.13
2022-12-20T01:13:03.763Z,8.40
2022-12-20T01:15:36.883Z,8.13
2022-12-20T01:18:08.965Z,8.00
2022-12-20T01:20:35.737Z,7.65
2022-12-20T01:23:03.917Z,7.57
2022-12-20T01:25:31.704Z,7.85
2022-12-20T01:28:04.125Z,8.38
2022-12-20T01:30:31.739Z,8.30
2022-12-20T01:33:03.837Z,7.55
2022-12-20T01:35:31.820Z,7.38
2022-12-20T01:38:04.869Z,7.55
2022-12-20T01:40:33.798Z,7.97
2022-12-20T01:43:01.741Z,8.35
2022-12-20T01:45:33.862Z,7.47
2022-12-20T01:50:53.911Z,7.85
2022-12-20T01:53:28.059Z,7.65
2022-12-20T01:55:55.868Z,7.95
2022-12-20T01:58:23.887Z,7.78
2022-12-20T02:00:52.025Z,8.00
2022-12-20T02:03:20.137Z,8.05
2022-12-20T02:05:47.940Z,8.00
2022-12-20T02:08:19.364Z,7.40
2022-12-20T02:11:09.675Z,7.88
2022-12-20T02:13:59.113Z,7.75
2022-12-20T02:16:29.665Z,7.18
2022-12-20T02:19:21.727Z,7.68
2022-12-20T02:22:05.763Z,7.97
2022-12-20T02:24:58.171Z,7.10
2022-12-20T02:27:41.423Z,7.40
2022-12-20T02:33:14.399Z,7.35
2022-12-20T02:35:42.681Z,7.43
2022-12-20T02:38:38.244Z,6.65
2022-12-20T02:41:28.450Z,6.57
2022-12-20T02:44:23.935Z,6.85
2022-12-20T02:46:58.543Z,7.00
2022-12-20T02:52:48.168Z,6.82
2022-12-20T02:55:16.138Z,7.00
2022-12-20T02:58:27.903Z,6.85
2022-12-20T03:01:04.287Z,7.35
2022-12-20T03:03:38.033Z,6.80
2022-12-20T03:06:11.114Z,7.05
2022-12-20T03:08:39.724Z,6.20
2022-12-20T03:11:31.822Z,6.75
2022-12-20T03:13:59.872Z,6.82
2022-12-20T03:16:27.787Z,7.07
2022-12-20T03:19:00.727Z,6.70
2022-12-20T03:21:27.708Z,6.55
2022-12-20T03:23:55.754Z,6.38
2022-12-20T03:26:27.750Z,5.80
2022-12-20T03:28:59.689Z,6.40
2022-12-20T03:31:51.735Z,6.07
2022-12-20T03:34:19.730Z,6.43
2022-12-20T03:36:51.788Z,6.28
2022-12-20T03:39:19.739Z,6.03
2022-12-20T03:41:52.719Z,7.30
2022-12-20T03:44:19.886Z,6.05
2022-12-20T03:46:47.824Z,6.05
2022-12-20T03:49:15.887Z,6.68
2022-12-20T03:51:47.757Z,5.95
2022-12-20T03:54:15.757Z,6.45
2022-12-20T03:57:06.124Z,6.47
2022-12-20T03:59:34.038Z,6.25
2022-12-20T04:02:07.882Z,6.05
2022-12-20T04:04:35.717Z,6.18
2022-12-20T04:07:03.847Z,5.75
2022-12-20T04:15:15.890Z,6.28
2022-12-20T04:18:07.689Z,5.72
2022-12-20T04:20:39.788Z,5.60
2022-12-20T04:23:17.723Z,5.60
2022-12-20T04:25:52.114Z,5.05
2022-12-20T04:28:25.731Z,5.68
2022-12-20T04:30:56.186Z,5.88
2022-12-20T04:33:27.307Z,5.60
2022-12-20T04:35:56.241Z,6.32
2022-12-20T04:38:30.018Z,5.20
2022-12-20T04:40:58.003Z,5.70
2022-12-20T04:43:32.870Z,5.53
2022-12-20T04:46:01.931Z,5.40
2022-12-20T04:48:55.667Z,5.50
2022-12-20T04:51:18.112Z,5.68
2022-12-20T04:53:49.069Z,5.88
2022-12-20T04:56:29.279Z,6.05
2022-12-20T04:59:10.968Z,6.63
2022-12-20T05:01:39.789Z,5.43
2022-12-20T05:04:17.719Z,5.85
2022-12-20T05:06:45.700Z,6.13
2022-12-20T05:09:37.745Z,5.95
2022-12-20T05:12:29.745Z,6.55
2022-12-20T05:18:13.773Z,5.63
2022-12-20T05:21:14.476Z,5.43
2022-12-20T05:24:08.459Z,5.93
2022-12-20T05:27:06.730Z,5.40
2022-12-20T05:29:33.762Z,5.43
2022-12-20T05:32:01.700Z,5.93
2022-12-20T05:37:49.846Z,5.22
2022-12-20T05:40:22.395Z,5.57
2022-12-20T05:42:49.721Z,5.07
2022-12-20T05:45:22.727Z,6.38
2022-12-20T05:50:48.013Z,6.60
2022-12-20T05:53:28.137Z,6.25
2022-12-20T05:56:21.717Z,6.40
2022-12-20T06:02:07.848Z,6.13
2022-12-20T06:04:38.365Z,6.35
2022-12-20T06:07:18.759Z,6.78
2022-12-20T06:12:57.757Z,6.10
2022-12-20T06:15:25.780Z,6.40
2022-12-20T06:17:58.893Z,6.63
2022-12-20T06:20:25.868Z,6.82
2022-12-20T06:22:53.934Z,6.72
2022-12-20T06:25:21.734Z,6.20
2022-12-20T06:27:54.826Z,6.60
2022-12-20T06:30:21.849Z,6.38
2022-12-20T06:33:07.166Z,6.53
2022-12-20T06:35:42.132Z,6.78
2022-12-20T06:38:37.338Z,7.97
2022-12-20T06:41:07.521Z,6.55
2022-12-20T06:43:36.884Z,6.00
2022-12-20T06:46:06.390Z,6.63
2022-12-20T06:48:38.759Z,6.72
2022-12-20T06:51:07.882Z,6.53
2022-12-20T06:53:35.760Z,6.45
2022-12-20T06:56:04.166Z,6.97
2022-12-20T06:58:37.733Z,7.03
2022-12-20T07:01:06.090Z,6.97
2022-12-20T07:03:37.875Z,7.15
2022-12-20T07:06:05.976Z,6.63
2022-12-20T07:08:33.760Z,6.95
2022-12-20T07:11:13.367Z,6.50
2022-12-20T07:13:41.705Z,7.47
2022-12-20T07:16:10.138Z,6.95
2022-12-20T07:18:43.747Z,6.85
2022-12-20T07:21:19.048Z,7.22
2022-12-20T07:23:47.611Z,6.30
2022-12-20T07:26:15.882Z,6.97
2022-12-20T07:28:43.830Z,6.93
2022-12-20T07:31:11.836Z,7.53
2022-12-20T07:33:40.090Z,7.00
2022-12-20T07:36:16.388Z,7.47
2022-12-20T07:38:43.962Z,6.90
2022-12-20T07:41:14.811Z,6.90
2022-12-20T07:43:42.654Z,7.68
2022-12-20T07:46:19.524Z,7.10
2022-12-20T07:48:47.699Z,7.25
2022-12-20T07:51:21.520Z,7.35
2022-12-20T07:54:06.764Z,7.20
2022-12-20T07:56:41.167Z,7.18
2022-12-20T07:59:12.437Z,7.30
2022-12-20T08:02:07.648Z,7.85
2022-12-20T08:04:35.810Z,7.13
2022-12-20T08:07:29.913Z,7.78
2022-12-20T08:10:01.971Z,7.40
2022-12-20T08:12:31.015Z,7.68
2022-12-20T08:14:58.394Z,8.27
2022-12-20T08:17:25.798Z,8.80
2022-12-20T08:19:53.732Z,8.73
2022-12-20T08:22:25.912Z,8.52
2022-12-20T08:24:53.715Z,7.53
2022-12-20T08:27:25.765Z,7.88
2022-12-20T08:29:53.804Z,8.35
2022-12-20T08:32:21.748Z,7.80
2022-12-20T08:34:49.837Z,7.32
2022-12-20T08:37:17.815Z,8.40
2022-12-20T08:39:45.776Z,7.30
2022-12-20T08:42:17.752Z,7.57
2022-12-20T08:44:45.885Z,7.97
2022-12-20T08:47:18.222Z,7.63
2022-12-20T08:49:47.894Z,7.68
2022-12-20T08:52:15.783Z,7.95
2022-12-20T08:55:12.759Z,8.85
2022-12-20T08:57:41.737Z,7.72
2022-12-20T09:00:11.264Z,8.52
2022-12-20T09:02:41.314Z,8.07
2022-12-20T09:05:10.154Z,8.73
2022-12-20T09:07:43.740Z,8.23
2022-12-20T09:10:37.598Z,8.32
2022-12-20T09:13:05.809Z,8.35
2022-12-20T09:15:35.304Z,7.90
2022-12-20T09:18:07.779Z,8.65
2022-12-20T09:20:35.747Z,9.05
2022-12-20T09:23:03.754Z,8.25
2022-12-20T09:25:33.154Z,8.50
2022-12-20T09:28:01.750Z,8.57
2022-12-20T09:30:29.732Z,8.30
2022-12-20T09:35:55.127Z,9.40
2022-12-20T09:38:21.755Z,8.43
2022-12-20T09:41:01.157Z,7.50
2022-12-20T09:43:30.279Z,8.25
2022-12-20T09:46:00.107Z,8.57
2022-12-20T09:48:40.505Z,9.50
2022-12-20T09:51:13.858Z,8.27
2022-12-20T09:54:07.111Z,8.43
2022-12-20T09:56:39.505Z,9.23
2022-12-20T09:59:14.829Z,8.82
2022-12-20T10:01:53.041Z,8.98
2022-12-20T10:04:19.907Z,8.90
2022-12-20T10:07:13.177Z,8.77
2022-12-20T10:10:14.764Z,8.27
2022-12-20T10:12:55.119Z,9.45
2022-12-20T10:15:28.649Z,8.90
2022-12-20T10:18:35.707Z,9.93
2022-12-20T10:21:24.298Z,9.35
2022-12-20T10:24:15.443Z,9.75
2022-12-20T10:26:43.916Z,9.90
2022-12-20T10:29:11.887Z,9.07
2022-12-20T10:32:18.755Z,9.98
2022-12-20T10:35:16.108Z,11.00
2022-12-20T10:38:17.436Z,9.73
2022-12-20T10:44:07.682Z,9.35
2022-12-20T10:46:42.147Z,8.73
2022-12-20T10:49:31.202Z,8.27
2022-12-20T10:52:03.918Z,8.35
2022-12-20T10:54:48.861Z,8.55
2022-12-20T10:57:24.731Z,8.18
2022-12-20T10:59:54.997Z,8.40
2022-12-20T11:02:38.953Z,8.95
2022-12-20T11:05:10.726Z,7.85
2022-12-20T11:11:18.718Z,7.07
2022-12-20T11:13:46.927Z,6.93
2022-12-20T11:16:31.452Z,7.75
2022-12-20T11:19:21.602Z,6.95
2022-12-20T11:22:05.924Z,7.25
2022-12-20T11:24:53.566Z,7.68
2022-12-20T11:27:41.745Z,7.70
2022-12-20T11:33:36.549Z,6.63
2022-12-20T11:39:03.662Z,6.78
2022-12-20T11:41:57.218Z,7.70
2022-12-20T11:45:09.328Z,7.00
2022-12-20T11:48:06.412Z,7.10
2022-12-20T11:50:43.762Z,6.28
2022-12-20T11:53:32.614Z,6.90
2022-12-20T11:56:57.119Z,6.93
2022-12-20T11:59:52.149Z,6.88
2022-12-20T12:02:29.805Z,6.50
2022-12-20T12:05:06.089Z,6.00
2022-12-20T12:08:06.035Z,7.15
2022-12-20T12:10:44.237Z,6.07
2022-12-20T12:13:18.966Z,6.38
2022-12-20T12:16:06.996Z,6.50
2022-12-20T12:18:42.130Z,5.90
2022-12-20T12:21:40.516Z,6.43
2022-12-20T12:24:14.321Z,5.28
2022-12-20T12:27:08.002Z,6.32
2022-12-20T12:30:05.300Z,7.47
2022-12-20T12:32:55.417Z,6.28
2022-12-20T12:35:55.063Z,7.35
2022-12-20T12:38:33.965Z,7.28
2022-12-20T12:41:27.116Z,7.25
2022-12-20T12:43:56.590Z,7.15
2022-12-20T12:46:35.924Z,6.40
2022-12-20T12:49:17.642Z,6.60
2022-12-20T12:54:47.834Z,5.97
2022-12-20T12:57:18.158Z,6.95
2022-12-20T12:59:48.575Z,5.35
2022-12-20T13:02:16.375Z,5.28
2022-12-20T13:04:58.937Z,6.05
2022-12-20T13:07:32.017Z,5.57
2022-12-20T13:10:06.862Z,5.55
2022-12-20T13:12:36.796Z,5.28
2022-12-20T13:15:28.783Z,4.95
2022-12-20T13:18:11.052Z,5.75
2022-12-20T13:20:39.837Z,6.25
2022-12-20T13:23:07.669Z,5.72
2022-12-20T13:25:48.569Z,5.68
2022-12-20T13:28:16.648Z,5.13
2022-12-20T13:30:50.632Z,6.00
2022-12-20T13:33:48.688Z,5.63
2022-12-20T13:37:25.755Z,6.70
2022-12-20T13:39:54.317Z,6.50
2022-12-20T13:42:21.661Z,6.28
2022-12-20T13:44:54.863Z,6.43
2022-12-20T13:48:06.357Z,6.20
2022-12-20T13:50:41.633Z,6.07
2022-12-20T13:53:19.993Z,7.05
2022-12-20T13:55:48.834Z,6.30
2022-12-20T13:58:27.714Z,6.28
2022-12-20T14:01:23.652Z,6.15
2022-12-20T14:03:53.231Z,5.32
2022-12-20T14:06:26.964Z,6.60
2022-12-20T14:08:55.731Z,5.55
2022-12-20T14:11:26.981Z,6.65
2022-12-20T14:14:01.035Z,6.70
2022-12-20T14:16:33.773Z,6.07
2022-12-20T14:19:13.054Z,6.22
2022-12-20T14:21:45.232Z,5.93
2022-12-20T14:24:20.007Z,6.45
2022-12-20T14:26:51.497Z,6.40
2022-12-20T14:32:28.058Z,5.40
2022-12-20T14:34:56.124Z,5.80
2022-12-20T14:37:23.697Z,6.47
2022-12-20T14:39:57.943Z,5.60
2022-12-20T14:42:35.569Z,5.30
2022-12-20T14:45:10.703Z,5.15
2022-12-20T14:47:53.172Z,6.07
2022-12-20T14:50:30.978Z,5.65
2022-12-20T14:53:04.014Z,5.53
2022-12-20T14:55:36.499Z,5.95
2022-12-20T14:58:35.034Z,5.90
2022-12-20T15:01:15.891Z,5.78
2022-12-20T15:06:54.972Z,5.65
2022-12-20T15:09:21.861Z,6.15
2022-12-20T15:11:51.703Z,5.70
2022-12-20T15:14:39.276Z,5.95
2022-12-20T15:17:14.491Z,6.43
2022-12-20T15:19:42.922Z,6.60
2022-12-20T15:22:17.916Z,7.07
2022-12-20T15:25:19.060Z,6.95
2022-12-20T15:27:45.727Z,6.72
2022-12-20T15:30:14.154Z,5.85
2022-12-20T15:32:54.671Z,6.60
2022-12-20T15:35:53.513Z,6.82
2022-12-20T15:38:40.919Z,6.88
2022-12-20T15:41:17.719Z,7.13
2022-12-20T15:43:58.828Z,6.35
2022-12-20T15:46:32.532Z,6.63
2022-12-20T15:49:30.296Z,6.60
2022-12-20T15:51:57.997Z,6.85
2022-12-20T15:54:27.697Z,6.82
2022-12-20T15:57:21.843Z,5.50
2022-12-20T16:02:49.714Z,6.47
2022-12-20T16:05:17.862Z,6.25
2022-12-20T16:07:45.896Z,6.03
2022-12-20T16:10:15.282Z,6.07
2022-12-20T16:12:43.876Z,6.20
2022-12-20T16:15:27.455Z,6.97
2022-12-20T16:18:21.727Z,6.55
2022-12-20T16:20:54.781Z,6.97
2022-12-20T16:23:24.536Z,6.32
2022-12-20T16:26:20.059Z,6.90
2022-12-20T16:28:48.812Z,6.45
2022-12-20T16:31:31.600Z,6.68
2022-12-20T16:34:05.019Z,6.68
2022-12-20T16:36:33.006Z,8.48
2022-12-20T16:38:59.973Z,6.95
2022-12-20T16:41:38.814Z,6.07
2022-12-20T16:44:06.772Z,7.10
2022-12-20T16:46:34.825Z,7.20
2022-12-20T16:49:32.782Z,6.53
2022-12-20T16:52:00.089Z,6.63
2022-12-20T16:54:27.854Z,7.70
2022-12-20T16:57:22.002Z,9.40
2022-12-20T16:59:49.796Z,10.57
2022-12-20T17:02:44.647Z,9.73
2022-12-20T17:05:44.510Z,9.10
2022-12-20T17:11:06.734Z,11.13
2022-12-20T17:13:33.778Z,9.27
2022-12-20T17:18:55.333Z,9.63
2022-12-20T17:21:23.768Z,9.73
2022-12-20T17:23:57.660Z,7.95
2022-12-20T17:26:28.133Z,8.32
2022-12-20T17:28:58.695Z,10.00
2022-12-20T17:31:34.316Z,8.80
2022-12-20T17:34:03.769Z,8.00
2022-12-20T17:36:37.799Z,7.40
2022-12-20T17:39:11.811Z,7.40
2022-12-20T17:41:40.179Z,8.82
2022-12-20T17:44:16.521Z,7.85
2022-12-20T17:46:50.248Z,8.18
2022-12-20T17:49:18.207Z,8.00
2022-12-20T17:51:46.766Z,7.38
2022-12-20T17:57:31.787Z,8.60
2022-12-20T18:00:04.142Z,8.57
2022-12-20T18:02:32.003Z,7.40
2022-12-20T18:04:59.745Z,8.20
2022-12-20T18:07:31.770Z,7.75
2022-12-20T18:10:00.164Z,8.48
2022-12-20T18:12:30.376Z,8.00
2022-12-20T18:15:02.290Z,7.72
2022-12-20T18:17:29.733Z,7.53
2022-12-20T18:19:57.847Z,7.60
2022-12-20T18:22:25.728Z,8.57
2022-12-20T18:24:58.217Z,8.45
2022-12-20T18:27:31.145Z,8.65
2022-12-20T18:29:59.704Z,7.63
2022-12-20T18:32:52.610Z,7.78
2022-12-20T18:35:19.730Z,7.00
2022-12-20T18:37:51.987Z,7.93
2022-12-20T18:40:19.706Z,7.82
2022-12-20T18:42:48.185Z,8.38
2022-12-20T18:45:41.794Z,8.05
2022-12-20T18:48:09.745Z,8.63
2022-12-20T18:53:37.289Z,8.57
2022-12-20T18:56:11.429Z,8.55
2022-12-20T19:01:34.415Z,10.02
2022-12-20T19:04:09.163Z,9.38
2022-12-20T19:06:38.700Z,9.05
2022-12-20T19:09:11.749Z,9.07
2022-12-20T19:11:40.674Z,11.88
2022-12-20T19:14:13.641Z,10.55
2022-12-20T19:16:41.826Z,10.52
2022-12-20T19:22:53.947Z,8.82
2022-12-20T19:25:25.862Z,9.05
2022-12-20T19:28:20.357Z,9.38
2022-12-20T19:30:54.066Z,10.25
2022-12-20T19:33:21.951Z,11.07
2022-12-20T19:35:56.106Z,10.52
2022-12-20T19:38:23.905Z,10.18
2022-12-20T19:40:53.821Z,11.05
2022-12-20T19:43:27.054Z,11.32
2022-12-20T19:45:56.199Z,9.65
2022-12-20T19:48:25.656Z,10.57
2022-12-20T19:51:12.460Z,9.98
2022-12-20T19:53:41.085Z,10.43
2022-12-20T19:56:17.454Z,10.60
2022-12-20T19:58:46.063Z,11.20
2022-12-20T20:01:40.377Z,11.27
2022-12-20T20:04:10.176Z,12.00
2022-12-20T20:06:44.095Z,12.90
2022-12-20T20:09:11.967Z,12.38
2022-12-20T20:11:40.026Z,12.73
2022-12-20T20:14:15.777Z,11.73
2022-12-20T20:16:44.158Z,13.93
2022-12-20T20:19:12.314Z,12.43
2022-12-20T20:21:44.911Z,11.15
2022-12-20T20:24:11.908Z,11.35
2022-12-20T20:26:40.079Z,11.63
2022-12-20T20:29:10.428Z,10.88
2022-12-20T20:34:30.621Z,10.88
2022-12-20T20:40:20.874Z,12.38
2022-12-20T20:42:47.734Z,12.70
2022-12-20T20:45:16.905Z,14.30
2022-12-20T20:50:38.292Z,12.25
2022-12-20T20:53:34.271Z,11.93
2022-12-20T20:56:05.984Z,11.77
2022-12-20T20:58:35.335Z,11.98
2022-12-20T21:01:08.462Z,11.20
2022-12-20T21:03:41.661Z,12.35
2022-12-20T21:06:39.035Z,11.80
2022-12-20T21:09:07.838Z,11.95
2022-12-20T21:11:37.013Z,11.57
2022-12-20T21:14:05.738Z,12.07
2022-12-20T21:16:45.433Z,12.55
2022-12-20T21:19:14.463Z,12.77
2022-12-20T21:21:41.811Z,11.40
2022-12-20T21:24:09.717Z,11.88
2022-12-20T21:26:37.902Z,11.75
2022-12-20T21:29:05.692Z,12.45
2022-12-20T21:31:33.887Z,12.30
2022-12-20T21:36:53.695Z,12.70
2022-12-20T21:42:13.802Z,12.75
2022-12-20T21:44:41.761Z,13.85
2022-12-20T21:47:11.191Z,12.60
2022-12-20T21:49:39.739Z,13.73
2022-12-20T21:52:07.929Z,12.77
2022-12-20T21:54:35.840Z,12.73
2022-12-20T21:57:03.886Z,12.30
2022-12-20T21:59:36.756Z,12.82
2022-12-20T22:02:05.115Z,12.88
2022-12-20T22:04:34.486Z,12.63
2022-12-20T22:07:01.731Z,11.77
2022-12-20T22:09:29.736Z,13.40
2022-12-20T22:12:21.703Z,11.95
2022-12-20T22:14:49.722Z,12.60
2022-12-20T22:17:17.726Z,13.73
2022-12-20T22:19:45.757Z,13.05
2022-12-20T22:22:19.065Z,12.55
2022-12-20T22:24:51.859Z,14.18
2022-12-20T22:27:19.803Z,16.80
2022-12-20T22:29:47.790Z,16.20
2022-12-20T22:32:15.861Z,18.17
2022-12-20T22:34:43.769Z,12.88
2022-12-20T22:37:11.729Z,11.55
2022-12-20T22:39:39.771Z,13.93
2022-12-20T22:42:11.837Z,11.07
2022-12-20T22:44:39.996Z,10.80
2022-12-20T22:47:08.312Z,11.40
2022-12-20T22:49:35.709Z,14.82
2022-12-20T22:52:07.625Z,12.77
2022-12-20T22:54:39.786Z,12.23
2022-12-20T22:57:10.337Z,13.07
2022-12-20T22:59:37.815Z,11.48
2022-12-20T23:02:06.159Z,11.60
2022-12-20T23:04:39.095Z,11.60
2022-12-20T23:07:07.321Z,10.98
2022-12-20T23:09:35.714Z,10.82
2022-12-20T23:12:32.827Z,10.65
2022-12-20T23:15:30.736Z,11.07
2022-12-20T23:17:58.450Z,10.70
2022-12-20T23:20:44.022Z,11.27
2022-12-20T23:23:11.735Z,10.57
2022-12-20T23:25:50.514Z,11.30
2022-12-20T23:28:23.716Z,11.15
2022-12-20T23:30:51.727Z,11.10
2022-12-20T23:33:19.720Z,10.48
2022-12-20T23:36:01.538Z,10.00
2022-12-20T23:38:34.391Z,9.75
2022-12-20T23:41:28.478Z,10.13
2022-12-20T23:44:26.841Z,10.07
2022-12-20T23:46:58.751Z,9.80
2022-12-20T23:49:25.850Z,9.73
2022-12-20T23:51:57.700Z,8.90
2022-12-20T23:54:25.819Z,8.93
2022-12-20T23:56:53.812Z,10.77
2022-12-20T23:59:21.850Z,9.55
